createdAt,value
2018-04-26T00:00:08.126Z,8.00
2018-04-26T00:03:10.613Z,8.00
2018-04-26T00:06:08.807Z,8.00
2018-04-26T00:09:07.024Z,7.90
2018-04-26T00:12:06.702Z,7.90
2018-04-26T00:15:11.568Z,7.80
2018-04-26T00:18:14.933Z,7.80
2018-04-26T00:21:13.266Z,7.80
2018-04-26T00:24:12.633Z,7.80
2018-04-26T00:27:11.659Z,7.80
2018-04-26T00:30:10.648Z,7.70
2018-04-26T00:33:09.400Z,7.80
2018-04-26T00:36:10.185Z,7.80
2018-04-26T00:39:09.694Z,7.80
2018-04-26T00:42:08.293Z,7.80
2018-04-26T00:45:06.324Z,7.80
2018-04-26T00:48:10.853Z,7.80
2018-04-26T00:51:09.282Z,7.70
2018-04-26T00:54:10.357Z,7.70
2018-04-26T00:57:09.314Z,7.70
2018-04-26T01:00:11.486Z,7.70
2018-04-26T01:03:11.439Z,7.70
2018-04-26T01:06:14.237Z,7.70
2018-04-26T01:09:12.787Z,7.60
2018-04-26T01:12:12.188Z,7.60
2018-04-26T01:15:09.987Z,7.60
2018-04-26T01:18:13.458Z,7.60
2018-04-26T01:21:15.743Z,7.60
2018-04-26T01:24:13.944Z,7.60
2018-04-26T01:27:13.037Z,7.50
2018-04-26T01:30:12.153Z,7.50
2018-04-26T01:33:10.920Z,7.50
2018-04-26T01:36:14.002Z,7.40
2018-04-26T01:39:17.119Z,7.40
2018-04-26T01:42:20.244Z,7.40
2018-04-26T01:45:18.579Z,7.20
2018-04-26T01:48:32.302Z,7.20
2018-04-26T01:51:32.702Z,7.20
2018-04-26T01:54:30.811Z,7.30
2018-04-26T01:57:29.793Z,7.20
2018-04-26T02:00:27.494Z,7.30
2018-04-26T02:03:26.862Z,7.30
2018-04-26T02:06:28.556Z,7.20
2018-04-26T02:09:28.121Z,7.30
2018-04-26T02:12:26.014Z,7.30
2018-04-26T02:15:25.612Z,7.30
2018-04-26T02:18:26.475Z,7.20
2018-04-26T02:21:29.257Z,7.30
2018-04-26T02:24:32.249Z,7.30
2018-04-26T02:27:33.780Z,7.30
2018-04-26T02:30:33.168Z,7.30
2018-04-26T02:33:31.659Z,7.30
2018-04-26T02:36:35.629Z,7.20
2018-04-26T02:39:35.718Z,7.20
2018-04-26T02:42:37.104Z,7.20
2018-04-26T02:45:36.491Z,7.20
2018-04-26T02:48:34.478Z,7.10
2018-04-26T02:51:35.630Z,7.10
2018-04-26T02:54:37.648Z,7.10
2018-04-26T02:57:37.010Z,7.10
2018-04-26T03:00:36.256Z,7.10
2018-04-26T03:03:35.329Z,7.10
2018-04-26T03:06:34.609Z,7.10
2018-04-26T03:09:32.573Z,7.10
2018-04-26T03:12:30.763Z,7.10
2018-04-26T03:15:28.518Z,7.10
2018-04-26T03:18:26.910Z,7.00
2018-04-26T03:21:27.760Z,7.00
2018-04-26T03:24:28.736Z,7.10
2018-04-26T03:27:26.496Z,7.00
2018-04-26T03:30:26.257Z,6.90
2018-04-26T03:33:26.361Z,6.90
2018-04-26T03:36:24.342Z,6.90
2018-04-26T03:39:25.112Z,6.90
2018-04-26T03:42:28.537Z,6.90
2018-04-26T03:45:27.572Z,6.80
2018-04-26T03:48:25.430Z,6.70
2018-04-26T03:51:23.742Z,6.80
2018-04-26T03:54:25.294Z,6.70
2018-04-26T03:57:28.200Z,6.70
2018-04-26T04:00:40.403Z,6.70
2018-04-26T04:03:53.427Z,6.60
2018-04-26T04:06:52.961Z,6.60
2018-04-26T04:09:52.426Z,6.50
2018-04-26T04:12:54.528Z,6.40
2018-04-26T04:15:55.757Z,6.40
2018-04-26T04:18:53.751Z,6.40
2018-04-26T04:21:53.870Z,6.40
2018-04-26T04:24:56.445Z,6.40
2018-04-26T04:27:56.256Z,6.30
2018-04-26T04:30:54.881Z,6.30
2018-04-26T04:33:53.915Z,6.20
2018-04-26T04:36:52.299Z,6.20
2018-04-26T04:39:51.341Z,6.20
2018-04-26T04:42:51.861Z,6.30
2018-04-26T04:45:49.949Z,6.30
2018-04-26T04:48:50.333Z,6.30
2018-04-26T04:51:48.453Z,6.30
2018-04-26T04:54:55.961Z,6.30
2018-04-26T04:57:57.117Z,6.40
2018-04-26T05:01:01.073Z,6.40
2018-04-26T05:03:59.152Z,6.40
2018-04-26T05:06:56.860Z,6.50
2018-04-26T05:09:57.007Z,6.50
2018-04-26T05:12:58.464Z,6.50
2018-04-26T05:16:02.326Z,6.50
2018-04-26T05:19:00.152Z,6.50
2018-04-26T05:22:03.098Z,6.50
2018-04-26T05:25:05.927Z,6.50
2018-04-26T05:28:06.865Z,6.60
2018-04-26T05:31:09.382Z,6.60
2018-04-26T05:34:13.903Z,6.70
2018-04-26T05:37:14.444Z,6.90
2018-04-26T05:43:22.653Z,7.00
2018-04-26T05:46:22.985Z,7.10
2018-04-26T05:49:22.035Z,7.10
2018-04-26T05:52:22.830Z,7.20
2018-04-26T05:55:24.858Z,7.30
2018-04-26T05:58:22.976Z,7.40
2018-04-26T06:01:25.520Z,7.60
2018-04-26T06:04:24.045Z,7.70
2018-04-26T06:07:27.927Z,7.90
2018-04-26T06:10:25.950Z,7.90
2018-04-26T06:13:25.847Z,8.10
2018-04-26T06:16:29.146Z,8.30
2018-04-26T06:19:31.061Z,8.40
2018-04-26T06:22:32.039Z,8.60
2018-04-26T06:25:30.048Z,8.60
2018-04-26T06:28:35.178Z,8.70
2018-04-26T06:31:34.105Z,8.80
2018-04-26T06:34:32.951Z,8.80
2018-04-26T06:37:32.193Z,8.90
2018-04-26T06:40:35.949Z,9.10
2018-04-26T06:43:35.885Z,9.10
2018-04-26T06:46:36.293Z,9.20
2018-04-26T06:49:38.879Z,9.30
2018-04-26T06:52:39.384Z,9.40
2018-04-26T06:55:38.313Z,9.50
2018-04-26T06:58:39.261Z,9.50
2018-04-26T07:01:37.270Z,9.60
2018-04-26T07:04:37.424Z,9.70
2018-04-26T07:07:35.662Z,9.70
2018-04-26T07:10:41.124Z,10.00
2018-04-26T07:13:44.705Z,9.90
2018-04-26T07:16:42.527Z,9.90
2018-04-26T07:19:40.749Z,10.20
2018-04-26T07:22:43.413Z,10.30
2018-04-26T07:25:45.982Z,10.20
2018-04-26T07:28:52.099Z,10.20
2018-04-26T07:32:00.169Z,10.30
2018-04-26T07:35:04.585Z,10.40
2018-04-26T07:38:07.256Z,10.50
2018-04-26T07:41:04.806Z,10.60
2018-04-26T07:44:03.846Z,10.90
2018-04-26T07:47:01.977Z,11.20
2018-04-26T07:50:06.692Z,11.10
2018-04-26T07:53:08.717Z,11.10
2018-04-26T07:56:07.618Z,11.10
2018-04-26T07:59:08.735Z,11.10
2018-04-26T08:02:11.322Z,11.90
2018-04-26T08:05:12.740Z,11.90
2018-04-26T08:08:15.662Z,12.10
2018-04-26T08:11:15.565Z,12.00
2018-04-26T08:14:22.575Z,12.60
2018-04-26T08:17:20.631Z,12.80
2018-04-26T08:20:19.665Z,12.90
2018-04-26T08:23:18.840Z,13.30
2018-04-26T08:26:18.513Z,12.80
2018-04-26T08:29:22.345Z,12.30
2018-04-26T08:32:20.056Z,12.10
2018-04-26T08:35:18.059Z,12.10
2018-04-26T08:38:16.085Z,12.10
2018-04-26T08:41:17.340Z,12.30
2018-04-26T08:44:15.023Z,12.30
2018-04-26T08:47:13.734Z,12.40
2018-04-26T08:50:14.822Z,12.10
2018-04-26T08:53:15.950Z,11.80
2018-04-26T08:56:17.044Z,11.90
2018-04-26T08:59:18.237Z,12.60
2018-04-26T09:02:24.585Z,13.20
2018-04-26T09:05:27.437Z,13.80
2018-04-26T09:08:25.282Z,13.70
2018-04-26T09:11:23.348Z,13.90
2018-04-26T09:14:23.274Z,13.40
2018-04-26T09:17:28.127Z,12.50
2018-04-26T09:20:26.293Z,12.50
2018-04-26T09:23:24.337Z,12.20
2018-04-26T09:26:22.309Z,12.10
2018-04-26T09:29:32.349Z,12.50
2018-04-26T09:32:30.230Z,13.00
2018-04-26T09:35:34.270Z,13.60
2018-04-26T09:38:33.324Z,13.40
2018-04-26T09:41:33.073Z,13.10
2018-04-26T09:44:39.096Z,12.60
2018-04-26T09:47:39.134Z,12.80
2018-04-26T09:50:39.508Z,14.20
2018-04-26T09:53:39.783Z,14.10
2018-04-26T09:56:41.713Z,14.00
2018-04-26T09:59:46.377Z,14.00
2018-04-26T10:02:50.697Z,13.90
2018-04-26T10:05:55.742Z,13.20
2018-04-26T10:08:54.890Z,13.10
2018-04-26T10:11:55.626Z,12.80
2018-04-26T10:14:53.736Z,12.60
2018-04-26T10:17:54.825Z,12.40
2018-04-26T10:20:58.637Z,12.50
2018-04-26T10:24:01.794Z,12.20
2018-04-26T10:27:01.735Z,11.70
2018-04-26T10:30:05.006Z,11.40
2018-04-26T10:33:05.926Z,11.40
2018-04-26T10:36:06.756Z,11.30
2018-04-26T10:39:07.955Z,11.40
2018-04-26T10:42:08.749Z,11.70
2018-04-26T10:48:23.637Z,13.40
2018-04-26T10:51:26.373Z,14.50
2018-04-26T10:54:33.046Z,14.60
2018-04-26T10:57:34.452Z,14.20
2018-04-26T11:00:41.335Z,14.60
2018-04-26T13:40:36.023Z,15.00
2018-04-26T13:43:35.310Z,15.10
2018-04-26T13:46:38.916Z,15.20
2018-04-26T13:49:46.826Z,15.10
2018-04-26T13:52:51.074Z,15.20
2018-04-26T13:55:55.978Z,15.10
2018-04-26T13:59:02.562Z,15.50
2018-04-26T14:02:09.250Z,15.30
2018-04-26T14:05:23.379Z,15.30
2018-04-26T14:08:27.820Z,15.40
2018-04-26T14:11:25.828Z,15.50
2018-04-26T14:14:31.242Z,15.70
2018-04-26T14:17:29.736Z,15.60
2018-04-26T14:20:30.769Z,15.50
2018-04-26T14:23:34.644Z,15.20
2018-04-26T14:26:35.950Z,15.20
2018-04-26T14:29:38.956Z,15.00
2018-04-26T14:32:42.571Z,14.80
2018-04-26T14:35:42.017Z,14.80
2018-04-26T14:38:48.954Z,14.80
2018-04-26T14:41:55.895Z,14.70
2018-04-26T14:44:55.150Z,14.60
2018-04-26T14:47:53.239Z,14.50
2018-04-26T14:50:54.816Z,14.40
2018-04-26T14:53:59.746Z,14.50
2018-04-26T14:56:58.505Z,14.40
2018-04-26T15:00:00.236Z,14.50
2018-04-26T15:03:00.118Z,14.80
2018-04-26T15:05:58.276Z,15.10
2018-04-26T15:08:58.179Z,15.00
2018-04-26T15:11:56.778Z,14.80
2018-04-26T15:14:55.182Z,14.70
2018-04-26T15:21:01.969Z,14.70
2018-04-26T15:24:07.618Z,14.90
2018-04-26T15:27:12.482Z,15.20
2018-04-26T15:33:27.141Z,15.20
2018-04-26T15:36:29.322Z,15.10
2018-04-26T15:39:31.848Z,15.20
2018-04-26T15:42:34.088Z,15.30
2018-04-26T15:45:36.178Z,15.20
2018-04-26T15:48:37.816Z,14.90
2018-04-26T15:51:44.155Z,14.90
2018-04-26T15:54:56.442Z,14.70
2018-04-26T16:01:16.536Z,14.60
2018-04-26T16:04:03.348Z,14.60
2018-04-26T16:06:42.610Z,14.60
2018-04-26T16:09:22.375Z,14.60
2018-04-26T16:12:06.344Z,14.60
2018-04-26T16:14:46.642Z,14.50
2018-04-26T16:17:32.049Z,14.40
2018-04-26T16:20:19.761Z,14.50
2018-04-26T16:23:06.114Z,14.80
2018-04-26T16:25:45.368Z,14.70
2018-04-26T16:28:32.624Z,14.70
2018-04-26T16:31:20.502Z,14.60
2018-04-26T16:34:11.404Z,14.40
2018-04-26T16:36:53.045Z,14.30
2018-04-26T16:39:21.202Z,14.20
2018-04-26T16:41:56.137Z,14.00
2018-04-26T16:44:27.120Z,14.10
2018-04-26T16:46:55.944Z,14.10
2018-04-26T16:49:23.913Z,14.00
2018-04-26T16:51:52.734Z,13.80
2018-04-26T16:54:21.392Z,13.80
2018-04-26T16:56:52.723Z,13.70
2018-04-26T16:59:28.755Z,13.60
2018-04-26T17:01:57.449Z,13.50
2018-04-26T17:04:27.262Z,13.50
2018-04-26T17:06:55.133Z,13.50
2018-04-26T17:09:23.964Z,13.60
2018-04-26T17:11:52.328Z,13.40
2018-04-26T17:14:20.339Z,13.50
2018-04-26T17:16:51.752Z,13.40
2018-04-26T17:19:26.756Z,13.50
2018-04-26T17:22:02.016Z,13.60
2018-04-26T17:24:37.324Z,13.60
2018-04-26T17:27:12.678Z,13.50
2018-04-26T17:29:45.756Z,13.40
2018-04-26T17:32:14.752Z,13.30
2018-04-26T17:34:42.332Z,13.20
2018-04-26T17:37:51.222Z,13.10
2018-04-26T17:40:20.836Z,13.10
2018-04-26T17:42:49.010Z,12.90
2018-04-26T17:45:16.576Z,12.90
2018-04-26T17:47:44.905Z,12.60
2018-04-26T17:50:12.451Z,12.60
2018-04-26T17:52:40.020Z,12.60
2018-04-26T17:55:08.351Z,12.60
2018-04-26T17:57:36.696Z,12.50
2018-04-26T18:00:10.737Z,12.50
2018-04-26T18:02:46.939Z,12.40
2018-04-26T18:05:20.345Z,12.40
2018-04-26T18:08:08.960Z,12.40
2018-04-26T18:10:37.253Z,12.30
2018-04-26T18:13:06.948Z,12.30
2018-04-26T18:15:42.728Z,12.20
2018-04-26T18:18:17.157Z,12.10
2018-04-26T18:20:50.387Z,12.10
2018-04-26T18:23:24.680Z,12.10
2018-04-26T18:26:00.278Z,12.10
2018-04-26T18:28:34.579Z,12.00
2018-04-26T18:31:11.283Z,12.00
2018-04-26T18:33:39.994Z,12.00
2018-04-26T18:36:07.557Z,12.00
2018-04-26T18:38:35.992Z,12.00
2018-04-26T18:41:03.918Z,11.80
2018-04-26T18:43:34.706Z,11.90
2018-04-26T18:46:02.998Z,11.80
2018-04-26T18:48:31.308Z,11.60
2018-04-26T18:50:59.669Z,11.50
2018-04-26T18:53:27.673Z,11.50
2018-04-26T18:55:56.598Z,11.50
2018-04-26T18:58:29.321Z,11.40
2018-04-26T19:00:57.201Z,11.30
2018-04-26T19:03:25.849Z,11.20
2018-04-26T19:05:53.391Z,11.20
2018-04-26T19:08:21.629Z,11.10
2018-04-26T19:10:54.948Z,11.10
2018-04-26T19:13:30.007Z,11.10
2018-04-26T19:16:02.091Z,11.00
2018-04-26T19:18:38.337Z,11.00
2018-04-26T19:21:06.191Z,11.00
2018-04-26T19:23:33.727Z,10.90
2018-04-26T19:26:01.276Z,10.80
2018-04-26T19:28:30.227Z,10.80
2018-04-26T19:30:58.364Z,10.70
2018-04-26T19:33:26.517Z,10.70
2018-04-26T19:35:55.018Z,10.70
2018-04-26T19:38:23.169Z,10.60
2018-04-26T19:40:51.208Z,10.60
2018-04-26T19:43:22.418Z,10.50
2018-04-26T19:45:57.111Z,10.50
2018-04-26T19:48:25.413Z,10.50
2018-04-26T19:50:56.068Z,10.40
2018-04-26T19:53:25.778Z,10.40
2018-04-26T19:55:53.333Z,10.40
2018-04-26T19:58:20.878Z,10.40
2018-04-26T20:00:48.695Z,10.40
2018-04-26T20:03:23.207Z,10.30
2018-04-26T20:05:54.393Z,10.20
2018-04-26T20:08:27.755Z,10.20
2018-04-26T20:11:02.491Z,10.10
2018-04-26T20:13:36.235Z,10.00
2018-04-26T20:16:06.160Z,10.00
2018-04-26T20:18:34.308Z,9.90
2018-04-26T20:21:03.941Z,10.00
2018-04-26T20:23:31.543Z,10.00
2018-04-26T20:26:02.031Z,10.00
2018-04-26T20:28:34.595Z,9.90
2018-04-26T20:31:02.571Z,9.90
2018-04-26T20:33:30.107Z,9.90
2018-04-26T20:35:57.720Z,10.00
2018-04-26T20:38:33.630Z,9.90
2018-04-26T20:41:01.965Z,9.90
2018-04-26T20:43:29.757Z,9.90
2018-04-26T20:45:57.330Z,10.00
2018-04-26T20:48:37.034Z,9.90
2018-04-26T20:51:06.485Z,9.90
2018-04-26T20:53:34.467Z,9.80
2018-04-26T20:56:02.035Z,9.90
2018-04-26T20:58:31.059Z,9.90
2018-04-26T21:01:00.958Z,9.90
2018-04-26T21:03:28.555Z,9.90
2018-04-26T21:05:57.500Z,9.90
2018-04-26T21:08:30.958Z,9.90
2018-04-26T21:10:59.487Z,9.90
2018-04-26T21:13:33.325Z,10.00
2018-04-26T21:16:03.832Z,10.00
2018-04-26T21:18:39.970Z,9.90
2018-04-26T21:21:13.647Z,9.90
2018-04-26T21:23:41.684Z,9.90
2018-04-26T21:26:10.113Z,9.90
2018-04-26T21:28:37.729Z,9.90
2018-04-26T21:31:05.222Z,9.90
2018-04-26T21:33:37.386Z,9.90
2018-04-26T21:36:04.938Z,9.80
2018-04-26T21:38:32.852Z,9.80
2018-04-26T21:41:25.378Z,9.80
2018-04-26T21:43:56.238Z,9.70
2018-04-26T21:46:23.765Z,9.70
2018-04-26T21:48:52.599Z,9.70
2018-04-26T21:51:26.207Z,9.70
2018-04-26T21:54:01.306Z,9.80
2018-04-26T21:56:35.533Z,9.70
2018-04-26T21:59:09.380Z,9.80
2018-04-26T22:01:45.412Z,9.70
2018-04-26T22:04:20.844Z,9.40
2018-04-26T22:06:50.555Z,9.40
2018-04-26T22:09:20.447Z,9.30
2018-04-26T22:12:26.742Z,9.20
2018-04-26T22:14:56.226Z,9.10
2018-04-26T22:17:29.404Z,9.10
2018-04-26T22:20:00.885Z,9.00
2018-04-26T22:22:30.137Z,8.90
2018-04-26T22:24:57.914Z,8.80
2018-04-26T22:27:25.445Z,8.80
2018-04-26T22:29:54.449Z,8.80
2018-04-26T22:32:24.357Z,8.70
2018-04-26T22:34:51.933Z,8.70
2018-04-26T22:37:19.464Z,8.70
2018-04-26T22:39:47.002Z,8.70
2018-04-26T22:42:15.345Z,8.80
2018-04-26T22:44:43.621Z,8.80
2018-04-26T22:47:12.784Z,8.90
2018-04-26T22:49:41.844Z,8.90
2018-04-26T22:52:09.405Z,9.00
2018-04-26T22:54:37.683Z,9.00
2018-04-26T22:57:05.731Z,9.00
2018-04-26T22:59:34.860Z,8.90
2018-04-26T23:02:02.401Z,8.90
2018-04-26T23:04:30.309Z,8.90
2018-04-26T23:06:59.211Z,8.80
2018-04-26T23:09:27.011Z,8.80
2018-04-26T23:11:54.866Z,8.70
2018-04-26T23:14:22.405Z,8.60
2018-04-26T23:16:49.937Z,8.50
2018-04-26T23:19:17.541Z,8.40
2018-04-26T23:21:45.846Z,8.40
2018-04-26T23:24:14.890Z,8.30
2018-04-26T23:26:43.204Z,8.20
2018-04-26T23:29:11.363Z,8.20
2018-04-26T23:31:38.918Z,8.20
2018-04-26T23:34:06.448Z,8.10
2018-04-26T23:36:34.248Z,8.10
2018-04-26T23:39:03.683Z,8.00
2018-04-26T23:41:31.589Z,8.00
2018-04-26T23:44:00.371Z,7.90
2018-04-26T23:46:28.137Z,7.90
2018-04-26T23:48:56.935Z,7.90
2018-04-26T23:51:24.486Z,7.80
2018-04-26T23:53:53.243Z,7.80
2018-04-26T23:56:21.620Z,7.80
2018-04-26T23:59:25.634Z,7.70
